createdAt,value
2018-07-15T00:01:52.095Z,83.00
2018-07-15T00:04:34.005Z,82.90
2018-07-15T00:07:14.556Z,82.80
2018-07-15T00:09:55.506Z,83.50
2018-07-15T00:12:36.446Z,83.70
2018-07-15T00:15:17.105Z,83.90
2018-07-15T00:17:58.207Z,84.90
2018-07-15T00:20:39.140Z,85.60
2018-07-15T00:23:19.661Z,86.20
2018-07-15T00:26:00.513Z,86.60
2018-07-15T00:28:40.912Z,87.10
2018-07-15T00:31:21.385Z,87.90
2018-07-15T00:34:01.872Z,86.60
2018-07-15T00:36:42.689Z,86.50
2018-07-15T00:39:23.245Z,86.40
2018-07-15T00:42:04.191Z,87.90
2018-07-15T00:44:45.191Z,88.10
2018-07-15T00:47:26.324Z,88.60
2018-07-15T00:50:07.088Z,88.80
2018-07-15T00:52:47.903Z,89.70
2018-07-15T00:55:29.035Z,89.60
2018-07-15T00:58:10.010Z,90.10
2018-07-15T01:00:56.193Z,90.10
2018-07-15T01:03:37.052Z,90.10
2018-07-15T01:06:17.509Z,88.80
2018-07-15T01:08:58.243Z,88.20
2018-07-15T01:11:39.168Z,88.30
2018-07-15T01:14:19.788Z,89.10
2018-07-15T01:17:00.560Z,89.60
2018-07-15T01:19:41.580Z,89.60
2018-07-15T01:22:22.674Z,89.70
2018-07-15T01:25:03.257Z,89.10
2018-07-15T01:27:44.175Z,88.60
2018-07-15T01:30:24.733Z,89.20
2018-07-15T01:33:06.367Z,89.70
2018-07-15T01:35:47.196Z,90.00
2018-07-15T01:38:28.407Z,90.40
2018-07-15T01:41:09.277Z,90.80
2018-07-15T01:43:49.970Z,91.10
2018-07-15T01:46:30.884Z,91.40
2018-07-15T01:49:11.450Z,91.70
2018-07-15T01:51:52.145Z,91.80
2018-07-15T01:54:32.683Z,91.80
2018-07-15T01:57:13.195Z,91.80
2018-07-15T01:59:54.565Z,91.50
2018-07-15T02:02:35.108Z,91.40
2018-07-15T02:05:16.133Z,91.30
2018-07-15T02:07:56.863Z,91.50
2018-07-15T02:10:37.729Z,92.20
2018-07-15T02:13:18.874Z,92.40
2018-07-15T02:15:59.568Z,92.30
2018-07-15T02:18:40.737Z,92.40
2018-07-15T02:21:21.652Z,92.60
2018-07-15T02:24:03.097Z,92.70
2018-07-15T02:26:43.879Z,92.90
2018-07-15T02:29:24.445Z,92.90
2018-07-15T02:32:05.281Z,92.50
2018-07-15T02:34:46.283Z,92.50
2018-07-15T02:37:27.344Z,92.60
2018-07-15T02:40:08.304Z,92.70
2018-07-15T02:42:49.081Z,92.30
2018-07-15T02:45:29.637Z,92.40
2018-07-15T02:48:10.544Z,92.50
2018-07-15T02:50:51.813Z,92.30
2018-07-15T02:53:33.324Z,91.90
2018-07-15T02:56:14.124Z,91.80
2018-07-15T02:58:55.046Z,92.00
2018-07-15T03:01:36.458Z,92.20
2018-07-15T03:04:17.858Z,92.40
2018-07-15T03:06:58.797Z,92.50
2018-07-15T03:12:20.963Z,92.80
2018-07-15T03:15:01.541Z,93.00
2018-07-15T03:17:42.072Z,93.00
2018-07-15T03:20:22.877Z,92.80
2018-07-15T03:23:04.453Z,92.80
2018-07-15T03:25:45.591Z,92.80
2018-07-15T03:28:26.705Z,92.90
2018-07-15T03:31:07.947Z,92.70
2018-07-15T03:33:49.498Z,92.60
2018-07-15T03:36:30.717Z,92.90
2018-07-15T03:39:11.883Z,93.10
2018-07-15T03:41:53.411Z,93.20
2018-07-15T03:44:34.571Z,93.00
2018-07-15T03:47:15.831Z,92.70
2018-07-15T03:49:56.989Z,92.60
2018-07-15T03:52:39.124Z,92.70
2018-07-15T03:55:20.746Z,93.00
2018-07-15T03:58:01.305Z,93.30
2018-07-15T04:00:42.274Z,93.80
2018-07-15T04:03:23.133Z,93.60
2018-07-15T04:06:04.267Z,93.60
2018-07-15T04:08:44.800Z,93.80
2018-07-15T04:11:25.801Z,93.60
2018-07-15T04:14:07.057Z,93.40
2018-07-15T04:16:47.749Z,93.20
2018-07-15T04:19:28.505Z,92.90
2018-07-15T04:22:09.426Z,92.60
2018-07-15T04:24:50.288Z,92.60
2018-07-15T04:27:30.713Z,92.30
2018-07-15T04:30:11.119Z,92.00
2018-07-15T04:32:52.622Z,91.90
2018-07-15T04:35:33.086Z,91.80
2018-07-15T04:38:13.754Z,91.80
2018-07-15T04:40:54.848Z,91.70
2018-07-15T04:43:35.537Z,91.80
2018-07-15T04:46:16.439Z,91.60
2018-07-15T04:48:57.452Z,91.50
2018-07-15T04:51:38.528Z,92.10
2018-07-15T04:54:19.451Z,91.70
2018-07-15T04:57:00.242Z,91.20
2018-07-15T04:59:40.738Z,91.90
2018-07-15T05:02:22.079Z,92.00
2018-07-15T05:05:03.044Z,91.50
2018-07-15T05:07:44.237Z,91.50
2018-07-15T05:13:05.421Z,91.90
2018-07-15T05:15:46.385Z,92.20
2018-07-15T05:18:27.829Z,92.00
2018-07-15T05:21:09.036Z,91.80
2018-07-15T05:23:50.398Z,91.80
2018-07-15T05:26:31.188Z,91.30
2018-07-15T05:29:11.719Z,90.10
2018-07-15T05:31:52.938Z,87.60
2018-07-15T05:34:34.264Z,84.80
2018-07-15T05:37:15.974Z,81.20
2018-07-15T05:39:56.832Z,79.00
2018-07-15T05:42:37.729Z,78.30
2018-07-15T05:45:18.170Z,80.00
2018-07-15T05:47:59.299Z,81.60
2018-07-15T05:50:40.612Z,84.80
2018-07-15T05:53:21.418Z,85.80
2018-07-15T05:56:03.290Z,87.30
2018-07-15T05:58:44.194Z,86.80
2018-07-15T06:01:25.461Z,85.30
2018-07-15T06:04:06.713Z,84.70
2018-07-15T06:06:47.410Z,84.60
2018-07-15T06:09:28.852Z,85.70
2018-07-15T06:12:10.117Z,85.40
2018-07-15T06:14:51.501Z,85.80
2018-07-15T06:17:31.993Z,84.80
2018-07-15T06:20:12.872Z,84.40
2018-07-15T06:22:54.463Z,84.90
2018-07-15T06:25:35.317Z,84.20
2018-07-15T06:28:16.100Z,84.30
2018-07-15T06:30:56.874Z,84.90
2018-07-15T06:33:37.468Z,84.60
2018-07-15T06:36:17.884Z,84.10
2018-07-15T06:38:58.621Z,83.60
2018-07-15T06:41:39.410Z,83.20
2018-07-15T06:44:20.652Z,83.70
2018-07-15T06:47:01.814Z,83.20
2018-07-15T06:52:23.002Z,80.80
2018-07-15T06:55:03.467Z,80.80
2018-07-15T06:57:44.100Z,79.80
2018-07-15T07:00:25.016Z,78.90
2018-07-15T07:03:06.698Z,77.70
2018-07-15T07:05:47.401Z,77.70
2018-07-15T07:08:27.929Z,76.80
2018-07-15T07:11:09.142Z,77.90
2018-07-15T07:13:49.962Z,77.30
2018-07-15T07:16:30.633Z,78.50
2018-07-15T07:19:12.416Z,77.20
2018-07-15T07:21:53.216Z,76.80
2018-07-15T07:24:33.927Z,77.50
2018-07-15T07:27:14.629Z,77.20
2018-07-15T07:29:55.190Z,77.80
2018-07-15T07:32:35.653Z,77.10
2018-07-15T07:35:17.973Z,76.40
2018-07-15T07:38:00.464Z,76.20
2018-07-15T07:40:41.252Z,75.20
2018-07-15T07:43:22.621Z,74.80
2018-07-15T07:46:03.504Z,75.60
2018-07-15T07:48:44.351Z,74.90
2018-07-15T07:51:26.347Z,73.20
2018-07-15T07:54:08.572Z,73.80
2018-07-15T07:56:50.332Z,73.80
2018-07-15T07:59:31.126Z,74.40
2018-07-15T08:02:11.678Z,71.20
2018-07-15T08:04:53.356Z,70.10
2018-07-15T08:07:35.181Z,70.70
2018-07-15T08:10:16.392Z,62.70
2018-07-15T08:12:57.643Z,59.30
2018-07-15T08:15:38.964Z,54.80
2018-07-15T08:18:20.368Z,51.80
2018-07-15T08:21:01.613Z,52.30
2018-07-15T08:23:42.101Z,51.50
2018-07-15T08:26:23.000Z,51.40
2018-07-15T08:29:03.903Z,51.40
2018-07-15T08:31:44.773Z,49.80
2018-07-15T08:34:25.517Z,47.60
2018-07-15T08:37:08.741Z,48.20
2018-07-15T08:39:50.167Z,48.60
2018-07-15T08:42:31.169Z,51.10
2018-07-15T08:45:12.089Z,51.00
2018-07-15T08:47:59.275Z,50.80
2018-07-15T08:50:39.996Z,51.70
2018-07-15T08:53:22.013Z,52.60
2018-07-15T08:56:02.562Z,46.70
2018-07-15T08:58:43.422Z,47.30
2018-07-15T09:01:24.225Z,45.80
2018-07-15T09:04:04.972Z,42.30
2018-07-15T09:06:45.471Z,42.20
2018-07-15T09:09:26.816Z,41.60
2018-07-15T09:12:07.652Z,41.80
2018-07-15T09:14:48.791Z,42.30
2018-07-15T09:17:30.052Z,42.20
2018-07-15T09:20:10.973Z,40.80
2018-07-15T09:25:32.976Z,37.00
2018-07-15T09:28:14.160Z,36.50
2018-07-15T09:30:55.065Z,36.10
2018-07-15T09:33:35.744Z,34.70
2018-07-15T09:36:16.241Z,33.50
2018-07-15T09:38:57.185Z,34.30
2018-07-15T09:41:38.050Z,34.40
2018-07-15T09:44:18.571Z,34.40
2018-07-15T09:46:59.351Z,32.60
2018-07-15T09:49:39.832Z,32.60
2018-07-15T09:52:20.127Z,34.50
2018-07-15T09:55:00.649Z,35.00
2018-07-15T09:57:41.552Z,34.10
2018-07-15T10:00:30.268Z,32.80
2018-07-15T10:03:12.576Z,33.90
2018-07-15T10:05:53.150Z,34.90
2018-07-15T10:08:34.006Z,32.90
2018-07-15T10:11:15.208Z,31.70
2018-07-15T10:13:55.678Z,31.40
2018-07-15T10:16:36.466Z,33.40
2018-07-15T10:19:17.822Z,33.30
2018-07-15T10:21:58.284Z,31.60
2018-07-15T10:24:39.185Z,31.60
2018-07-15T10:27:20.052Z,33.10
2018-07-15T10:30:00.909Z,34.00
2018-07-15T10:32:41.737Z,34.20
2018-07-15T10:35:22.135Z,34.50
2018-07-15T10:38:03.065Z,34.70
2018-07-15T10:40:43.488Z,33.50
2018-07-15T10:43:23.926Z,31.60
2018-07-15T10:46:05.000Z,32.50
2018-07-15T10:48:46.923Z,33.30
2018-07-15T10:51:30.712Z,32.90
2018-07-15T10:54:11.368Z,31.00
2018-07-15T10:56:52.211Z,31.40
2018-07-15T10:59:32.712Z,31.00
2018-07-15T11:02:13.324Z,36.10
2018-07-15T11:04:54.291Z,34.30
2018-07-15T11:07:34.909Z,33.80
2018-07-15T11:10:15.443Z,32.80
2018-07-15T11:12:56.240Z,32.80
2018-07-15T11:15:37.127Z,32.30
2018-07-15T11:18:18.089Z,31.80
2018-07-15T11:20:59.952Z,33.00
2018-07-15T11:23:40.810Z,32.30
2018-07-15T11:26:21.228Z,33.50
2018-07-15T11:29:01.982Z,32.00
2018-07-15T11:31:42.980Z,31.60
2018-07-15T11:34:24.145Z,33.40
2018-07-15T11:37:06.224Z,33.40
2018-07-15T11:39:46.766Z,33.70
2018-07-15T11:42:27.798Z,32.10
2018-07-15T11:45:08.256Z,32.40
2018-07-15T11:47:48.989Z,31.80
2018-07-15T11:50:29.725Z,32.00
2018-07-15T11:53:10.685Z,30.30
2018-07-15T11:55:51.675Z,31.30
2018-07-15T11:58:32.277Z,30.00
2018-07-15T12:01:13.379Z,30.90
2018-07-15T12:03:53.948Z,32.30
2018-07-15T12:06:34.428Z,32.00
2018-07-15T12:09:14.872Z,31.40
2018-07-15T12:11:55.450Z,32.00
2018-07-15T12:14:36.600Z,31.80
2018-07-15T12:17:17.718Z,31.10
2018-07-15T12:19:59.306Z,31.00
2018-07-15T12:22:40.198Z,29.50
2018-07-15T12:25:20.600Z,31.00
2018-07-15T12:28:01.482Z,31.50
2018-07-15T12:30:42.402Z,31.80
2018-07-15T12:33:23.241Z,31.40
2018-07-15T12:38:45.317Z,30.00
2018-07-15T12:41:28.427Z,29.40
2018-07-15T12:44:09.632Z,29.10
2018-07-15T12:46:50.441Z,30.00
2018-07-15T12:49:31.552Z,30.00
2018-07-15T12:52:12.027Z,29.50
2018-07-15T12:54:53.281Z,31.70
2018-07-15T12:57:33.751Z,31.40
2018-07-15T13:00:14.268Z,31.40
2018-07-15T13:02:54.772Z,29.90
2018-07-15T13:05:35.903Z,29.70
2018-07-15T13:10:57.293Z,30.60
2018-07-15T13:13:38.561Z,30.80
2018-07-15T13:16:19.315Z,31.20
2018-07-15T13:19:00.268Z,31.30
2018-07-15T13:21:41.573Z,31.80
2018-07-15T13:24:22.775Z,32.40
2018-07-15T13:27:03.300Z,31.90
2018-07-15T13:29:44.430Z,33.00
2018-07-15T13:32:25.874Z,32.70
2018-07-15T13:35:12.488Z,32.90
2018-07-15T13:37:53.736Z,31.70
2018-07-15T13:40:34.649Z,32.10
2018-07-15T13:43:15.377Z,32.50
2018-07-15T13:45:55.800Z,32.90
2018-07-15T13:48:36.630Z,33.10
2018-07-15T13:51:17.648Z,32.50
2018-07-15T13:53:58.113Z,32.50
2018-07-15T13:56:38.805Z,32.80
2018-07-15T13:59:20.025Z,33.60
2018-07-15T14:02:00.887Z,33.50
2018-07-15T14:04:42.133Z,35.00
2018-07-15T14:07:23.332Z,35.40
2018-07-15T14:10:04.285Z,34.20
2018-07-15T14:12:45.548Z,34.90
2018-07-15T14:15:26.286Z,34.00
2018-07-15T14:18:07.236Z,34.20
2018-07-15T14:20:48.327Z,34.80
2018-07-15T14:23:29.572Z,32.70
2018-07-15T14:26:10.581Z,34.00
2018-07-15T14:28:51.109Z,33.90
2018-07-15T14:31:31.728Z,33.50
2018-07-15T14:34:12.448Z,35.10
2018-07-15T14:36:52.831Z,35.80
2018-07-15T14:39:38.077Z,36.30
2018-07-15T14:42:18.616Z,36.80
2018-07-15T14:44:59.657Z,36.00
2018-07-15T14:47:40.772Z,35.80
2018-07-15T14:50:21.803Z,36.00
2018-07-15T14:53:03.817Z,35.90
2018-07-15T14:55:44.596Z,37.70
2018-07-15T14:58:25.040Z,37.00
2018-07-15T15:01:06.073Z,38.10
2018-07-15T15:03:47.327Z,37.60
2018-07-15T15:09:08.906Z,38.90
2018-07-15T15:11:50.252Z,40.90
2018-07-15T15:14:30.884Z,41.10
2018-07-15T15:17:11.895Z,42.70
2018-07-15T15:19:52.452Z,41.20
2018-07-15T15:22:33.193Z,41.50
2018-07-15T15:25:14.143Z,41.10
2018-07-15T15:27:55.015Z,41.20
2018-07-15T15:30:35.581Z,41.50
2018-07-15T15:33:16.755Z,41.30
2018-07-15T15:35:57.524Z,41.00
2018-07-15T15:38:38.382Z,41.70
2018-07-15T15:41:19.031Z,41.10
2018-07-15T15:43:59.801Z,41.60
2018-07-15T15:46:40.764Z,40.70
2018-07-15T15:49:21.502Z,41.30
2018-07-15T15:52:03.308Z,42.70
2018-07-15T15:54:44.559Z,42.80
2018-07-15T15:57:25.111Z,43.10
2018-07-15T16:00:08.272Z,43.30
2018-07-15T16:02:50.856Z,43.80
2018-07-15T16:08:12.692Z,44.50
2018-07-15T16:10:53.449Z,44.50
2018-07-15T16:13:34.373Z,44.10
2018-07-15T16:16:16.030Z,43.90
2018-07-15T16:18:57.232Z,43.30
2018-07-15T16:21:37.984Z,43.60
2018-07-15T16:24:19.434Z,45.00
2018-07-15T16:27:00.561Z,45.00
2018-07-15T16:29:42.692Z,44.20
2018-07-15T16:32:23.720Z,45.20
2018-07-15T16:35:04.409Z,45.70
2018-07-15T16:37:45.157Z,45.80
2018-07-15T16:40:25.917Z,45.40
2018-07-15T16:43:06.920Z,44.80
2018-07-15T16:45:47.587Z,45.10
2018-07-15T16:48:28.265Z,45.50
2018-07-15T16:51:09.070Z,44.80
2018-07-15T16:53:49.634Z,45.10
2018-07-15T16:56:30.743Z,45.10
2018-07-15T16:59:11.144Z,45.80
2018-07-15T17:01:52.019Z,45.40
2018-07-15T17:04:32.832Z,45.20
2018-07-15T17:07:13.597Z,45.90
2018-07-15T17:09:54.220Z,46.10
2018-07-15T17:12:35.042Z,45.20
2018-07-15T17:15:15.697Z,45.00
2018-07-15T17:17:56.504Z,45.30
2018-07-15T17:20:37.140Z,45.80
2018-07-15T17:23:18.413Z,45.60
2018-07-15T17:25:59.112Z,45.70
2018-07-15T17:28:40.185Z,45.90
2018-07-15T17:31:20.521Z,47.10
2018-07-15T17:34:01.179Z,47.00
2018-07-15T17:36:41.735Z,46.90
2018-07-15T17:39:22.226Z,46.60
2018-07-15T17:42:03.409Z,46.10
2018-07-15T17:44:44.178Z,46.80
2018-07-15T17:50:16.561Z,46.50
2018-07-15T17:52:57.981Z,46.60
2018-07-15T17:55:38.828Z,46.70
2018-07-15T17:58:19.700Z,47.00
2018-07-15T18:01:01.143Z,47.10
2018-07-15T18:03:42.942Z,47.20
2018-07-15T18:06:23.767Z,47.20
2018-07-15T18:09:05.761Z,47.80
2018-07-15T18:11:46.185Z,47.00
2018-07-15T18:17:07.796Z,46.80
2018-07-15T18:19:48.311Z,46.40
2018-07-15T18:22:28.968Z,46.60
2018-07-15T18:25:09.945Z,46.80
2018-07-15T18:27:50.564Z,47.40
2018-07-15T18:30:31.379Z,47.60
2018-07-15T18:33:11.975Z,47.00
2018-07-15T18:35:53.131Z,47.90
2018-07-15T18:38:34.847Z,48.40
2018-07-15T18:41:16.352Z,49.20
2018-07-15T18:43:57.389Z,48.50
2018-07-15T18:46:38.235Z,48.60
2018-07-15T18:49:19.889Z,48.40
2018-07-15T18:54:41.652Z,49.10
2018-07-15T18:57:22.081Z,49.40
2018-07-15T19:00:02.796Z,49.30
2018-07-15T19:02:43.456Z,49.30
2018-07-15T19:05:23.909Z,49.60
2018-07-15T19:08:05.470Z,49.90
2018-07-15T19:10:46.797Z,49.80
2018-07-15T19:13:33.007Z,50.30
2018-07-15T19:16:14.404Z,50.40
2018-07-15T19:18:55.520Z,50.70
2018-07-15T19:21:37.879Z,51.10
2018-07-15T19:24:18.620Z,51.80
2018-07-15T19:27:01.519Z,51.70
2018-07-15T19:29:42.223Z,51.80
2018-07-15T19:32:23.067Z,52.70
2018-07-15T19:35:04.908Z,52.90
2018-07-15T19:37:45.780Z,52.90
2018-07-15T19:40:26.741Z,53.90
2018-07-15T19:43:07.360Z,54.00
2018-07-15T19:45:48.219Z,53.60
2018-07-15T19:48:28.960Z,54.30
2018-07-15T19:51:11.561Z,54.40
2018-07-15T19:53:52.747Z,54.70
2018-07-15T19:56:34.194Z,55.50
2018-07-15T19:59:14.929Z,55.40
2018-07-15T20:01:56.479Z,55.70
2018-07-15T20:04:37.297Z,56.60
2018-07-15T20:07:18.099Z,55.90
2018-07-15T20:09:58.814Z,56.40
2018-07-15T20:12:39.844Z,55.90
2018-07-15T20:18:01.736Z,55.50
2018-07-15T20:20:42.491Z,56.30
2018-07-15T20:23:23.511Z,56.80
2018-07-15T20:26:05.994Z,56.40
2018-07-15T20:31:27.451Z,56.80
2018-07-15T20:34:08.736Z,57.10
2018-07-15T20:36:49.391Z,57.50
2018-07-15T20:39:29.886Z,56.90
2018-07-15T20:42:11.322Z,58.60
2018-07-15T20:44:51.936Z,60.10
2018-07-15T20:47:32.942Z,60.20
2018-07-15T20:50:13.852Z,61.00
2018-07-15T20:52:55.183Z,61.60
2018-07-15T20:55:36.460Z,62.10
2018-07-15T20:58:16.880Z,61.30
2018-07-15T21:00:57.987Z,61.60
2018-07-15T21:03:39.081Z,63.40
2018-07-15T21:06:19.788Z,63.70
2018-07-15T21:09:00.512Z,65.00
2018-07-15T21:11:41.074Z,64.30
2018-07-15T21:14:22.421Z,65.20
2018-07-15T21:17:03.278Z,65.50
2018-07-15T21:22:23.977Z,66.20
2018-07-15T21:25:04.536Z,65.50
2018-07-15T21:27:45.226Z,66.30
2018-07-15T21:30:26.124Z,66.60
2018-07-15T21:33:07.240Z,66.90
2018-07-15T21:35:48.177Z,67.70
2018-07-15T21:38:29.100Z,67.50
2018-07-15T21:41:10.053Z,69.20
2018-07-15T21:43:50.692Z,68.60
2018-07-15T21:46:31.748Z,68.80
2018-07-15T21:49:12.276Z,69.40
2018-07-15T21:51:52.760Z,70.20
2018-07-15T21:54:33.532Z,69.40
2018-07-15T21:57:13.861Z,70.40
2018-07-15T21:59:54.284Z,71.30
2018-07-15T22:02:35.472Z,71.40
2018-07-15T22:05:16.205Z,71.70
2018-07-15T22:08:13.666Z,72.60
2018-07-15T22:10:54.846Z,73.20
2018-07-15T22:16:15.580Z,73.80
2018-07-15T22:18:55.979Z,73.30
2018-07-15T22:21:37.104Z,74.50
2018-07-15T22:24:18.031Z,73.70
2018-07-15T22:26:58.756Z,74.80
2018-07-15T22:29:39.996Z,74.80
2018-07-15T22:32:20.496Z,75.30
2018-07-15T22:35:01.306Z,76.10
2018-07-15T22:37:42.600Z,76.70
2018-07-15T22:40:23.376Z,77.50
2018-07-15T22:43:04.125Z,77.40
2018-07-15T22:45:46.189Z,77.80
2018-07-15T22:48:27.198Z,76.20
2018-07-15T22:51:07.937Z,77.60
2018-07-15T22:53:48.700Z,77.90
2018-07-15T22:56:29.992Z,77.90
2018-07-15T22:59:10.376Z,77.40
2018-07-15T23:01:51.272Z,78.00
2018-07-15T23:06:40.062Z,76.70
2018-07-15T23:09:20.668Z,76.80
2018-07-15T23:14:42.428Z,77.30
2018-07-15T23:17:23.064Z,76.50
2018-07-15T23:20:05.941Z,76.70
2018-07-15T23:22:46.832Z,77.80
2018-07-15T23:25:27.545Z,78.10
2018-07-15T23:28:09.048Z,78.60
2018-07-15T23:30:49.571Z,79.20
2018-07-15T23:33:30.829Z,80.20
2018-07-15T23:36:11.752Z,80.20
2018-07-15T23:38:53.220Z,80.20
2018-07-15T23:41:33.994Z,81.20
2018-07-15T23:44:15.036Z,81.50
2018-07-15T23:46:56.396Z,82.40
2018-07-15T23:49:37.123Z,82.50
2018-07-15T23:52:18.334Z,83.10
2018-07-15T23:54:58.820Z,82.10
2018-07-15T23:57:40.100Z,82.90
